createdAt,value
2019-02-08T00:01:58.930Z,5.56
2019-02-08T00:04:29.912Z,5.58
2019-02-08T00:07:00.863Z,5.55
2019-02-08T00:09:32.061Z,5.58
2019-02-08T00:12:02.969Z,5.59
2019-02-08T00:14:34.030Z,5.60
2019-02-08T00:17:04.921Z,5.57
2019-02-08T00:19:36.069Z,5.58
2019-02-08T00:22:08.635Z,5.66
2019-02-08T00:24:39.717Z,5.61
2019-02-08T00:27:10.825Z,5.59
2019-02-08T00:29:41.794Z,5.55
2019-02-08T00:32:12.793Z,5.55
2019-02-08T00:34:44.470Z,5.58
2019-02-08T00:37:15.708Z,5.58
2019-02-08T00:39:47.186Z,5.53
2019-02-08T00:42:18.076Z,5.52
2019-02-08T00:44:49.575Z,5.51
2019-02-08T00:47:20.460Z,5.51
2019-02-08T00:49:51.460Z,5.56
2019-02-08T00:52:22.357Z,5.62
2019-02-08T00:54:53.353Z,5.64
2019-02-08T00:57:24.138Z,5.60
2019-02-08T00:59:55.416Z,5.60
2019-02-08T01:02:26.303Z,5.66
2019-02-08T01:04:57.702Z,5.72
2019-02-08T01:07:28.497Z,5.77
2019-02-08T01:09:59.480Z,5.75
2019-02-08T01:12:30.475Z,5.77
2019-02-08T01:15:01.521Z,5.76
2019-02-08T01:17:32.568Z,5.71
2019-02-08T01:20:03.851Z,5.77
2019-02-08T01:22:34.844Z,5.71
2019-02-08T01:25:07.660Z,5.68
2019-02-08T01:27:38.678Z,5.73
2019-02-08T01:30:12.831Z,5.77
2019-02-08T01:32:43.833Z,5.77
2019-02-08T01:35:16.644Z,5.69
2019-02-08T01:37:48.137Z,5.73
2019-02-08T01:40:20.769Z,5.70
2019-02-08T01:42:51.664Z,5.62
2019-02-08T01:45:24.206Z,5.67
2019-02-08T01:47:55.485Z,5.68
2019-02-08T01:50:27.513Z,5.64
2019-02-08T01:52:58.491Z,5.62
2019-02-08T01:55:29.680Z,5.59
2019-02-08T01:58:00.689Z,5.60
2019-02-08T02:00:35.036Z,5.60
2019-02-08T02:03:06.974Z,5.60
2019-02-08T02:05:38.961Z,5.60
2019-02-08T02:08:10.377Z,5.60
2019-02-08T02:10:42.905Z,5.53
2019-02-08T02:13:13.985Z,5.50
2019-02-08T02:15:45.258Z,5.49
2019-02-08T02:18:16.348Z,5.46
2019-02-08T02:20:47.285Z,5.43
2019-02-08T02:23:18.253Z,5.42
2019-02-08T02:25:49.715Z,5.42
2019-02-08T02:28:20.759Z,5.48
2019-02-08T02:30:51.763Z,5.42
2019-02-08T02:33:22.725Z,5.43
2019-02-08T02:35:54.625Z,5.46
2019-02-08T02:38:25.422Z,5.47
2019-02-08T02:40:56.416Z,5.49
2019-02-08T02:43:27.316Z,5.50
2019-02-08T02:45:58.490Z,5.54
2019-02-08T02:48:29.485Z,5.56
2019-02-08T02:51:00.383Z,5.57
2019-02-08T02:53:31.440Z,5.62
2019-02-08T02:56:02.549Z,5.60
2019-02-08T02:58:33.442Z,5.56
2019-02-08T03:01:05.108Z,5.50
2019-02-08T03:03:36.037Z,5.50
2019-02-08T03:06:07.441Z,5.49
2019-02-08T03:08:39.662Z,5.60
2019-02-08T03:11:10.781Z,5.58
2019-02-08T03:13:41.638Z,5.63
2019-02-08T03:16:12.914Z,5.74
2019-02-08T03:18:43.739Z,5.80
2019-02-08T03:21:14.727Z,5.82
2019-02-08T03:23:45.497Z,5.87
2019-02-08T03:26:16.502Z,5.87
2019-02-08T03:28:47.274Z,5.81
2019-02-08T03:31:18.290Z,5.84
2019-02-08T03:33:49.168Z,5.84
2019-02-08T03:36:20.057Z,5.79
2019-02-08T03:38:50.921Z,5.68
2019-02-08T03:41:22.721Z,5.66
2019-02-08T03:43:53.625Z,5.60
2019-02-08T03:46:24.613Z,5.66
2019-02-08T03:48:55.399Z,5.72
2019-02-08T03:51:26.298Z,5.68
2019-02-08T03:53:57.182Z,5.73
2019-02-08T03:56:28.071Z,5.72
2019-02-08T03:58:58.847Z,5.70
2019-02-08T04:01:29.825Z,5.65
2019-02-08T04:04:17.122Z,5.65
2019-02-08T04:06:48.251Z,5.62
2019-02-08T04:09:19.198Z,5.52
2019-02-08T04:11:50.305Z,5.65
2019-02-08T04:14:21.170Z,5.59
2019-02-08T04:16:52.148Z,5.50
2019-02-08T04:19:23.041Z,5.55
2019-02-08T04:21:55.244Z,5.48
2019-02-08T04:24:29.992Z,5.50
2019-02-08T04:26:58.694Z,5.40
2019-02-08T04:29:29.468Z,5.38
2019-02-08T04:32:00.455Z,5.35
2019-02-08T04:34:31.356Z,5.27
2019-02-08T04:37:02.396Z,5.30
2019-02-08T04:39:33.328Z,5.25
2019-02-08T04:42:04.406Z,5.20
2019-02-08T04:44:36.333Z,5.26
2019-02-08T04:47:07.364Z,5.42
2019-02-08T04:49:38.824Z,5.42
2019-02-08T04:52:09.699Z,5.43
2019-02-08T04:54:40.691Z,5.47
2019-02-08T04:57:11.716Z,5.50
2019-02-08T04:59:42.578Z,5.43
2019-02-08T05:02:13.753Z,5.41
2019-02-08T05:04:44.653Z,5.35
2019-02-08T05:07:15.722Z,5.31
2019-02-08T05:09:46.536Z,5.29
2019-02-08T05:12:18.324Z,5.24
2019-02-08T05:14:49.645Z,5.25
2019-02-08T05:17:20.882Z,5.16
2019-02-08T05:19:51.809Z,5.11
2019-02-08T05:22:22.774Z,5.12
2019-02-08T05:24:53.765Z,5.10
2019-02-08T05:27:25.725Z,5.06
2019-02-08T05:29:56.648Z,5.03
2019-02-08T05:32:27.491Z,5.03
2019-02-08T05:34:58.539Z,5.03
2019-02-08T05:37:29.416Z,5.06
2019-02-08T05:40:00.465Z,5.15
2019-02-08T05:42:32.469Z,5.10
2019-02-08T05:45:03.531Z,5.17
2019-02-08T05:47:34.370Z,5.27
2019-02-08T05:50:06.569Z,5.23
2019-02-08T05:52:37.736Z,5.27
2019-02-08T05:55:11.653Z,5.32
2019-02-08T05:57:42.601Z,5.30
2019-02-08T06:00:30.087Z,5.31
2019-02-08T06:03:01.148Z,5.25
2019-02-08T06:05:32.178Z,5.20
2019-02-08T06:08:03.179Z,5.20
2019-02-08T06:10:34.043Z,5.13
2019-02-08T06:13:05.863Z,5.27
2019-02-08T06:15:37.133Z,5.31
2019-02-08T06:18:08.859Z,5.46
2019-02-08T06:20:40.279Z,5.44
2019-02-08T06:23:11.373Z,5.43
2019-02-08T06:25:42.449Z,5.49
2019-02-08T06:28:13.435Z,5.51
2019-02-08T06:30:44.425Z,5.45
2019-02-08T06:33:15.514Z,5.43
2019-02-08T06:35:46.406Z,5.48
2019-02-08T06:38:17.460Z,5.48
2019-02-08T06:40:48.773Z,5.50
2019-02-08T06:43:20.398Z,5.41
2019-02-08T06:45:51.345Z,5.48
2019-02-08T06:48:22.281Z,5.42
2019-02-08T06:50:53.164Z,5.42
2019-02-08T06:53:24.329Z,5.43
2019-02-08T06:55:55.345Z,5.47
2019-02-08T06:58:39.609Z,5.43
2019-02-08T07:01:28.042Z,5.37
2019-02-08T07:04:30.010Z,5.40
2019-02-08T07:07:21.735Z,5.51
2019-02-08T07:10:10.388Z,5.49
2019-02-08T07:13:00.373Z,5.49
2019-02-08T07:16:08.807Z,5.50
2019-02-08T07:18:47.325Z,5.51
2019-02-08T07:21:55.518Z,5.48
2019-02-08T07:24:51.086Z,5.53
2019-02-08T07:27:27.373Z,5.52
2019-02-08T07:30:10.424Z,5.53
2019-02-08T07:33:15.611Z,5.50
2019-02-08T07:36:04.738Z,5.58
2019-02-08T07:38:41.869Z,5.59
2019-02-08T07:41:30.671Z,5.71
2019-02-08T07:44:24.684Z,5.73
2019-02-08T07:47:28.197Z,5.76
2019-02-08T07:50:18.348Z,5.94
2019-02-08T07:53:08.460Z,6.08
2019-02-08T07:55:48.973Z,6.30
2019-02-08T07:58:51.164Z,6.42
2019-02-08T08:01:50.467Z,6.58
2019-02-08T08:04:43.627Z,6.61
2019-02-08T08:07:39.860Z,6.67
2019-02-08T08:10:28.309Z,6.81
2019-02-08T08:13:27.408Z,6.82
2019-02-08T08:16:20.055Z,6.82
2019-02-08T08:19:16.113Z,6.85
2019-02-08T08:22:06.305Z,6.92
2019-02-08T08:25:00.153Z,7.01
2019-02-08T08:27:59.860Z,7.11
2019-02-08T08:30:58.505Z,7.10
2019-02-08T08:33:41.375Z,7.24
2019-02-08T08:36:53.677Z,7.42
2019-02-08T08:39:57.074Z,7.57
2019-02-08T08:43:15.631Z,7.62
2019-02-08T08:46:10.330Z,7.89
2019-02-08T08:49:11.781Z,8.13
2019-02-08T08:52:42.421Z,8.05
2019-02-08T08:55:49.626Z,7.93
2019-02-08T08:59:11.233Z,7.80
2019-02-08T09:02:21.398Z,7.79
2019-02-08T09:05:30.324Z,7.76
2019-02-08T09:08:34.764Z,7.91
2019-02-08T09:11:56.689Z,7.98
2019-02-08T09:14:45.965Z,8.07
2019-02-08T09:18:12.698Z,8.12
2019-02-08T09:21:27.016Z,8.15
2019-02-08T09:24:36.500Z,8.25
2019-02-08T09:27:49.887Z,8.30
2019-02-08T09:31:09.516Z,8.25
2019-02-08T09:34:09.936Z,8.30
2019-02-08T09:37:18.869Z,8.55
2019-02-08T09:40:36.808Z,8.42
2019-02-08T09:43:48.604Z,8.36
2019-02-08T09:46:46.268Z,8.34
2019-02-08T09:49:56.327Z,8.33
2019-02-08T09:53:06.894Z,8.36
2019-02-08T09:56:23.605Z,8.37
2019-02-08T09:59:47.280Z,8.49
2019-02-08T10:02:56.941Z,8.52
2019-02-08T10:06:14.603Z,8.57
2019-02-08T10:09:26.471Z,8.50
2019-02-08T10:12:36.804Z,8.58
2019-02-08T10:15:42.454Z,8.69
2019-02-08T10:18:55.498Z,8.84
2019-02-08T10:22:04.131Z,8.86
2019-02-08T10:25:17.619Z,8.87
2019-02-08T10:28:22.609Z,8.94
2019-02-08T10:31:39.309Z,8.96
2019-02-08T10:34:46.902Z,9.04
2019-02-08T10:38:10.478Z,8.98
2019-02-08T10:41:30.633Z,8.92
2019-02-08T10:44:49.839Z,8.89
2019-02-08T10:47:56.217Z,8.89
2019-02-08T10:51:06.469Z,8.89
2019-02-08T10:54:06.042Z,9.06
2019-02-08T10:57:25.862Z,9.04
2019-02-08T11:00:24.756Z,8.91
2019-02-08T11:03:42.395Z,8.96
2019-02-08T11:06:58.598Z,9.18
2019-02-08T11:10:04.961Z,9.26
2019-02-08T11:13:12.561Z,9.30
2019-02-08T11:16:19.030Z,9.27
2019-02-08T11:19:23.145Z,9.32
2019-02-08T11:21:57.016Z,9.44
2019-02-08T11:24:28.515Z,9.48
2019-02-08T11:27:01.147Z,9.48
2019-02-08T11:29:32.129Z,9.52
2019-02-08T11:32:03.102Z,9.45
2019-02-08T11:34:33.992Z,9.53
2019-02-08T11:37:05.202Z,9.58
2019-02-08T11:39:35.992Z,9.63
2019-02-08T11:42:07.065Z,9.66
2019-02-08T11:44:37.950Z,9.78
2019-02-08T11:47:08.942Z,9.87
2019-02-08T11:49:39.828Z,9.94
2019-02-08T11:52:10.913Z,10.00
2019-02-08T11:54:41.810Z,10.10
2019-02-08T11:57:12.806Z,10.08
2019-02-08T11:59:43.706Z,10.18
2019-02-08T12:02:16.084Z,10.15
2019-02-08T12:04:47.182Z,10.27
2019-02-08T12:07:18.471Z,10.28
2019-02-08T12:09:49.314Z,10.28
2019-02-08T12:12:20.281Z,10.29
2019-02-08T12:14:51.164Z,10.20
2019-02-08T12:17:22.140Z,10.20
2019-02-08T12:19:53.037Z,10.15
2019-02-08T12:22:24.062Z,10.21
2019-02-08T12:24:54.840Z,10.11
2019-02-08T12:27:25.969Z,10.27
2019-02-08T12:29:57.008Z,10.30
2019-02-08T12:32:27.979Z,10.29
2019-02-08T12:34:58.902Z,10.37
2019-02-08T12:37:29.774Z,10.37
2019-02-08T12:40:00.649Z,10.28
2019-02-08T12:42:31.574Z,10.35
2019-02-08T12:45:02.469Z,10.48
2019-02-08T12:47:33.450Z,10.47
2019-02-08T12:50:04.630Z,10.53
2019-02-08T12:52:35.991Z,10.49
2019-02-08T12:55:08.341Z,10.51
2019-02-08T12:57:39.263Z,10.55
2019-02-08T13:00:14.586Z,10.65
2019-02-08T13:02:45.734Z,10.62
2019-02-08T13:05:16.998Z,10.70
2019-02-08T13:07:48.121Z,10.55
2019-02-08T13:10:20.858Z,10.51
2019-02-08T13:12:53.141Z,10.52
2019-02-08T13:15:25.073Z,10.50
2019-02-08T13:17:56.230Z,10.43
2019-02-08T13:20:27.351Z,10.50
2019-02-08T13:22:58.542Z,10.56
2019-02-08T13:25:29.442Z,10.60
2019-02-08T13:28:01.362Z,10.60
2019-02-08T13:30:32.636Z,10.72
2019-02-08T13:33:04.758Z,10.65
2019-02-08T13:35:35.646Z,10.72
2019-02-08T13:38:06.666Z,10.71
2019-02-08T13:40:37.528Z,10.71
2019-02-08T13:43:08.409Z,10.86
2019-02-08T13:45:39.291Z,10.77
2019-02-08T13:48:10.283Z,10.81
2019-02-08T13:50:41.190Z,10.64
2019-02-08T13:53:12.103Z,10.66
2019-02-08T13:55:42.965Z,10.85
2019-02-08T13:58:13.857Z,10.70
2019-02-08T14:00:44.718Z,10.50
2019-02-08T14:03:16.073Z,10.55
2019-02-08T14:05:47.032Z,10.61
2019-02-08T14:08:18.092Z,10.61
2019-02-08T14:10:48.991Z,10.55
2019-02-08T14:13:19.983Z,10.52
2019-02-08T14:15:50.870Z,10.43
2019-02-08T14:18:21.771Z,10.42
2019-02-08T14:20:52.638Z,10.42
2019-02-08T14:23:23.619Z,10.43
2019-02-08T14:25:54.624Z,10.43
2019-02-08T14:28:25.637Z,10.41
2019-02-08T14:30:56.612Z,10.33
2019-02-08T14:33:27.592Z,10.35
2019-02-08T14:35:58.377Z,10.34
2019-02-08T14:38:29.438Z,10.36
2019-02-08T14:41:00.266Z,10.36
2019-02-08T14:43:31.169Z,10.40
2019-02-08T14:46:01.937Z,10.37
2019-02-08T14:48:32.918Z,10.31
2019-02-08T14:51:03.699Z,10.23
2019-02-08T14:53:34.699Z,10.20
2019-02-08T14:56:05.690Z,10.17
2019-02-08T14:58:36.685Z,10.24
2019-02-08T15:01:07.555Z,10.33
2019-02-08T15:03:39.096Z,10.17
2019-02-08T15:06:09.958Z,10.03
2019-02-08T15:08:41.218Z,9.95
2019-02-08T15:11:12.143Z,9.97
2019-02-08T15:13:43.142Z,10.00
2019-02-08T15:16:14.125Z,9.91
2019-02-08T15:18:45.389Z,9.93
2019-02-08T15:21:16.307Z,9.90
2019-02-08T15:23:47.483Z,9.93
2019-02-08T15:26:18.551Z,9.82
2019-02-08T15:28:49.619Z,9.88
2019-02-08T15:31:20.628Z,9.87
2019-02-08T15:33:51.996Z,9.91
2019-02-08T15:36:23.009Z,9.86
2019-02-08T15:38:54.152Z,9.84
2019-02-08T15:41:25.187Z,9.83
2019-02-08T15:43:56.497Z,9.78
2019-02-08T15:46:27.486Z,9.79
2019-02-08T15:48:58.479Z,9.76
2019-02-08T15:51:29.565Z,9.75
2019-02-08T15:54:00.564Z,9.77
2019-02-08T15:56:31.736Z,9.65
2019-02-08T15:59:02.761Z,9.62
2019-02-08T16:01:33.839Z,9.57
2019-02-08T16:04:05.783Z,9.46
2019-02-08T16:06:36.689Z,9.44
2019-02-08T16:09:12.248Z,9.32
2019-02-08T16:11:43.275Z,9.20
2019-02-08T16:14:14.361Z,9.05
2019-02-08T16:16:45.844Z,9.07
2019-02-08T16:19:16.832Z,9.00
2019-02-08T16:21:47.644Z,8.93
2019-02-08T16:24:18.892Z,8.85
2019-02-08T16:26:49.910Z,8.82
2019-02-08T16:29:20.919Z,8.76
2019-02-08T16:31:51.905Z,8.73
2019-02-08T16:34:23.596Z,8.64
2019-02-08T16:36:54.401Z,8.52
2019-02-08T16:39:25.394Z,8.46
2019-02-08T16:41:56.259Z,8.42
2019-02-08T16:44:27.156Z,8.40
2019-02-08T16:46:58.312Z,8.30
2019-02-08T16:49:29.531Z,8.18
2019-02-08T16:52:00.549Z,8.07
2019-02-08T16:54:31.449Z,7.88
2019-02-08T16:57:02.301Z,7.67
2019-02-08T16:59:33.418Z,7.53
2019-02-08T17:02:04.994Z,7.36
2019-02-08T17:04:37.173Z,7.18
2019-02-08T17:07:08.206Z,7.09
2019-02-08T17:09:39.216Z,7.03
2019-02-08T17:12:10.096Z,6.96
2019-02-08T17:14:41.081Z,6.83
2019-02-08T17:17:11.961Z,6.64
2019-02-08T17:19:44.053Z,6.50
2019-02-08T17:22:14.973Z,6.26
2019-02-08T17:24:45.932Z,6.29
2019-02-08T17:27:16.849Z,6.24
2019-02-08T17:29:48.118Z,6.24
2019-02-08T17:32:19.031Z,6.18
2019-02-08T17:34:50.516Z,6.16
2019-02-08T17:37:21.338Z,6.07
2019-02-08T17:39:52.297Z,6.11
2019-02-08T17:42:23.597Z,6.00
2019-02-08T17:44:54.584Z,6.05
2019-02-08T17:47:25.498Z,6.04
2019-02-08T17:49:59.129Z,6.00
2019-02-08T17:52:30.032Z,5.88
2019-02-08T17:55:00.930Z,5.81
2019-02-08T17:57:31.792Z,5.74
2019-02-08T18:00:02.956Z,5.68
2019-02-08T18:02:35.001Z,5.58
2019-02-08T18:05:06.817Z,5.55
2019-02-08T18:07:37.593Z,5.47
2019-02-08T18:10:10.409Z,5.36
2019-02-08T18:12:41.232Z,5.27
2019-02-08T18:15:14.589Z,5.36
2019-02-08T18:17:45.461Z,5.44
2019-02-08T18:20:25.712Z,5.38
2019-02-08T18:22:56.647Z,5.23
2019-02-08T18:25:27.938Z,5.17
2019-02-08T18:27:58.944Z,5.19
2019-02-08T18:30:30.022Z,5.18
2019-02-08T18:33:00.906Z,5.21
2019-02-08T18:35:32.098Z,5.25
2019-02-08T18:38:03.022Z,5.33
2019-02-08T18:40:33.987Z,5.24
2019-02-08T18:43:04.969Z,5.13
2019-02-08T18:45:36.074Z,5.05
2019-02-08T18:48:07.272Z,5.03
2019-02-08T18:50:40.518Z,5.04
2019-02-08T18:53:11.401Z,4.98
2019-02-08T18:55:44.333Z,4.95
2019-02-08T18:58:19.103Z,4.95
2019-02-08T19:00:49.191Z,4.95
2019-02-08T19:03:20.278Z,5.04
2019-02-08T19:05:51.160Z,5.07
2019-02-08T19:08:22.137Z,5.03
2019-02-08T19:10:53.164Z,5.00
2019-02-08T19:13:23.934Z,5.03
2019-02-08T19:15:55.086Z,5.06
2019-02-08T19:18:25.914Z,5.09
2019-02-08T19:20:56.820Z,5.15
2019-02-08T19:23:27.682Z,5.13
2019-02-08T19:25:58.644Z,4.94
2019-02-08T19:28:29.462Z,4.79
2019-02-08T19:31:00.750Z,4.84
2019-02-08T19:33:31.644Z,4.69
2019-02-08T19:36:02.616Z,4.71
2019-02-08T19:38:33.153Z,4.74
2019-02-08T19:41:04.103Z,4.63
2019-02-08T19:43:34.784Z,4.58
2019-02-08T19:46:06.180Z,4.60
2019-02-08T19:48:37.074Z,4.64
2019-02-08T19:51:07.948Z,4.62
2019-02-08T19:53:38.726Z,4.59
2019-02-08T19:56:09.724Z,4.58
2019-02-08T19:58:40.621Z,4.62
2019-02-08T20:01:11.904Z,4.62
2019-02-08T20:03:42.892Z,4.61
2019-02-08T20:06:14.005Z,4.58
2019-02-08T20:08:44.940Z,4.54
2019-02-08T20:11:15.810Z,4.51
2019-02-08T20:13:46.786Z,4.43
2019-02-08T20:16:17.891Z,4.40
2019-02-08T20:18:48.891Z,4.38
2019-02-08T20:21:19.681Z,4.37
2019-02-08T20:23:50.573Z,4.36
2019-02-08T20:26:27.495Z,4.31
2019-02-08T20:28:58.496Z,4.23
2019-02-08T20:31:30.551Z,4.30
2019-02-08T20:34:01.654Z,4.23
2019-02-08T20:36:32.570Z,4.20
2019-02-08T20:39:07.121Z,4.22
2019-02-08T20:41:39.789Z,4.21
2019-02-08T20:44:10.858Z,4.17
2019-02-08T20:46:41.748Z,4.17
2019-02-08T20:49:12.738Z,4.18
2019-02-08T20:51:43.645Z,4.15
2019-02-08T20:54:14.716Z,4.06
2019-02-08T20:56:45.608Z,4.05
2019-02-08T20:59:19.955Z,4.01
2019-02-08T21:01:51.147Z,4.04
2019-02-08T21:04:23.502Z,4.05
2019-02-08T21:06:58.563Z,4.09
2019-02-08T21:09:31.308Z,4.11
2019-02-08T21:12:04.212Z,4.09
2019-02-08T21:14:40.238Z,3.97
2019-02-08T21:17:11.069Z,3.83
2019-02-08T21:19:41.961Z,3.82
2019-02-08T21:22:17.595Z,3.84
2019-02-08T21:24:48.831Z,3.83
2019-02-08T21:27:24.085Z,3.81
2019-02-08T21:29:54.882Z,3.72
2019-02-08T21:32:26.650Z,3.71
2019-02-08T21:38:49.871Z,3.72
2019-02-08T21:50:06.438Z,4.14
2019-02-08T21:56:07.772Z,4.91
2019-02-08T21:58:38.673Z,5.15
2019-02-08T22:01:09.849Z,5.28
2019-02-08T22:03:40.733Z,5.25
2019-02-08T22:06:12.521Z,5.47
2019-02-08T22:08:43.339Z,5.66
2019-02-08T22:11:14.325Z,5.70
2019-02-08T22:13:45.229Z,5.72
2019-02-08T22:16:16.321Z,5.92
2019-02-08T22:18:48.233Z,6.01
2019-02-08T22:21:19.118Z,6.08
2019-02-08T22:23:49.794Z,5.94
2019-02-08T22:26:20.963Z,5.82
2019-02-08T22:28:51.865Z,5.72
2019-02-08T22:31:22.822Z,5.57
2019-02-08T22:33:54.695Z,5.31
2019-02-08T22:36:25.623Z,5.26
2019-02-08T22:38:56.560Z,5.10
2019-02-08T22:41:27.924Z,5.03
2019-02-08T22:43:58.845Z,4.90
2019-02-08T22:46:31.190Z,4.76
2019-02-08T22:49:02.290Z,4.60
2019-02-08T22:51:33.082Z,4.48
2019-02-08T22:54:04.216Z,4.31
2019-02-08T22:56:35.129Z,4.22
2019-02-08T22:59:06.114Z,4.13
2019-02-08T23:01:41.293Z,4.00
2019-02-08T23:04:12.488Z,4.01
2019-02-08T23:06:45.151Z,4.00
2019-02-08T23:09:21.024Z,4.01
2019-02-08T23:11:51.988Z,3.96
2019-02-08T23:14:22.989Z,3.96
2019-02-08T23:16:53.985Z,3.94
2019-02-08T23:19:24.886Z,3.92
2019-02-08T23:21:56.686Z,3.83
2019-02-08T23:24:27.565Z,3.79
2019-02-08T23:26:58.568Z,3.74
2019-02-08T23:29:30.526Z,3.74
2019-02-08T23:32:01.485Z,3.74
2019-02-08T23:34:32.365Z,3.82
2019-02-08T23:37:03.261Z,3.76
2019-02-08T23:39:34.022Z,3.69
2019-02-08T23:42:05.008Z,3.83
2019-02-08T23:44:35.892Z,4.03
2019-02-08T23:47:07.092Z,4.30
2019-02-08T23:49:37.788Z,4.61
2019-02-08T23:52:08.782Z,4.82
2019-02-08T23:54:39.321Z,4.85
2019-02-08T23:57:10.129Z,5.26
2019-02-08T23:59:40.917Z,5.26
